sensor_id;sensor_type;location;lat;lon;timestamp;P1;durP1;ratioP1;P2;durP2;ratioP2
21215;SDS011;10765;50.954;5.322;2023-08-17T00:01:33;5.70;;;3.40;;
21215;SDS011;10765;50.954;5.322;2023-08-17T00:04:00;3.70;;;3.23;;
21215;SDS011;10765;50.954;5.322;2023-08-17T00:06:27;4.00;;;3.60;;
21215;SDS011;10765;50.954;5.322;2023-08-17T00:08:54;6.73;;;4.30;;
21215;SDS011;10765;50.954;5.322;2023-08-17T00:11:20;4.67;;;3.97;;
21215;SDS011;10765;50.954;5.322;2023-08-17T00:13:49;5.13;;;3.60;;
21215;SDS011;10765;50.954;5.322;2023-08-17T00:16:16;4.87;;;4.00;;
21215;SDS011;10765;50.954;5.322;2023-08-17T00:18:42;4.30;;;3.60;;
21215;SDS011;10765;50.954;5.322;2023-08-17T00:21:09;6.43;;;3.73;;
21215;SDS011;10765;50.954;5.322;2023-08-17T00:23:36;4.77;;;3.80;;
21215;SDS011;10765;50.954;5.322;2023-08-17T00:26:03;6.33;;;4.17;;
21215;SDS011;10765;50.954;5.322;2023-08-17T00:28:30;4.07;;;3.67;;
21215;SDS011;10765;50.954;5.322;2023-08-17T00:30:59;6.20;;;3.70;;
21215;SDS011;10765;50.954;5.322;2023-08-17T00:33:26;5.33;;;3.57;;
21215;SDS011;10765;50.954;5.322;2023-08-17T00:35:53;6.10;;;3.83;;
21215;SDS011;10765;50.954;5.322;2023-08-17T00:38:20;4.80;;;3.30;;
21215;SDS011;10765;50.954;5.322;2023-08-17T00:40:47;4.53;;;3.53;;
21215;SDS011;10765;50.954;5.322;2023-08-17T00:43:14;4.93;;;3.40;;
21215;SDS011;10765;50.954;5.322;2023-08-17T00:45:41;3.87;;;3.27;;
21215;SDS011;10765;50.954;5.322;2023-08-17T00:48:10;6.27;;;3.70;;
21215;SDS011;10765;50.954;5.322;2023-08-17T00:50:38;5.63;;;3.80;;
21215;SDS011;10765;50.954;5.322;2023-08-17T00:53:06;4.93;;;3.20;;
21215;SDS011;10765;50.954;5.322;2023-08-17T00:55:38;3.77;;;3.30;;
21215;SDS011;10765;50.954;5.322;2023-08-17T00:58:05;6.07;;;3.30;;
21215;SDS011;10765;50.954;5.322;2023-08-17T01:00:32;4.90;;;3.27;;
21215;SDS011;10765;50.954;5.322;2023-08-17T01:02:59;3.70;;;3.10;;
21215;SDS011;10765;50.954;5.322;2023-08-17T01:05:27;4.97;;;3.20;;
21215;SDS011;10765;50.954;5.322;2023-08-17T01:07:54;4.03;;;2.90;;
21215;SDS011;10765;50.954;5.322;2023-08-17T01:10:21;6.23;;;3.20;;
21215;SDS011;10765;50.954;5.322;2023-08-17T01:12:51;4.83;;;2.83;;
21215;SDS011;10765;50.954;5.322;2023-08-17T01:15:24;4.73;;;3.50;;
21215;SDS011;10765;50.954;5.322;2023-08-17T01:17:58;6.20;;;3.20;;
21215;SDS011;10765;50.954;5.322;2023-08-17T01:20:31;4.93;;;2.83;;
21215;SDS011;10765;50.954;5.322;2023-08-17T01:23:03;4.20;;;2.90;;
21215;SDS011;10765;50.954;5.322;2023-08-17T01:25:31;4.73;;;3.17;;
21215;SDS011;10765;50.954;5.322;2023-08-17T01:28:01;4.27;;;2.80;;
21215;SDS011;10765;50.954;5.322;2023-08-17T01:30:29;4.87;;;3.00;;
21215;SDS011;10765;50.954;5.322;2023-08-17T01:33:01;4.00;;;2.83;;
21215;SDS011;10765;50.954;5.322;2023-08-17T01:35:34;4.70;;;3.07;;
21215;SDS011;10765;50.954;5.322;2023-08-17T01:38:09;3.97;;;3.13;;
21215;SDS011;10765;50.954;5.322;2023-08-17T01:40:40;5.50;;;2.97;;
21215;SDS011;10765;50.954;5.322;2023-08-17T01:43:08;3.20;;;2.90;;
21215;SDS011;10765;50.954;5.322;2023-08-17T01:45:36;7.33;;;3.30;;
21215;SDS011;10765;50.954;5.322;2023-08-17T01:48:03;5.53;;;3.00;;
21215;SDS011;10765;50.954;5.322;2023-08-17T01:50:31;4.50;;;3.00;;
21215;SDS011;10765;50.954;5.322;2023-08-17T01:52:57;3.63;;;2.60;;
21215;SDS011;10765;50.954;5.322;2023-08-17T01:55:26;6.57;;;3.00;;
21215;SDS011;10765;50.954;5.322;2023-08-17T01:57:53;3.37;;;3.00;;
21215;SDS011;10765;50.954;5.322;2023-08-17T02:00:20;5.27;;;3.20;;
21215;SDS011;10765;50.954;5.322;2023-08-17T02:02:46;3.77;;;2.90;;
21215;SDS011;10765;50.954;5.322;2023-08-17T02:05:13;5.60;;;3.23;;
21215;SDS011;10765;50.954;5.322;2023-08-17T02:07:40;5.80;;;3.60;;
21215;SDS011;10765;50.954;5.322;2023-08-17T02:10:07;4.83;;;3.47;;
21215;SDS011;10765;50.954;5.322;2023-08-17T02:12:36;4.63;;;3.47;;
21215;SDS011;10765;50.954;5.322;2023-08-17T02:15:03;4.40;;;2.80;;
21215;SDS011;10765;50.954;5.322;2023-08-17T02:17:31;3.27;;;2.90;;
21215;SDS011;10765;50.954;5.322;2023-08-17T02:19:57;4.80;;;3.10;;
21215;SDS011;10765;50.954;5.322;2023-08-17T02:22:24;3.50;;;3.20;;
21215;SDS011;10765;50.954;5.322;2023-08-17T02:24:51;4.37;;;3.10;;
21215;SDS011;10765;50.954;5.322;2023-08-17T02:27:18;4.57;;;3.90;;
21215;SDS011;10765;50.954;5.322;2023-08-17T02:29:46;3.97;;;3.57;;
21215;SDS011;10765;50.954;5.322;2023-08-17T02:32:13;3.73;;;3.33;;
21215;SDS011;10765;50.954;5.322;2023-08-17T02:34:40;3.43;;;3.10;;
21215;SDS011;10765;50.954;5.322;2023-08-17T02:37:07;4.87;;;3.50;;
21215;SDS011;10765;50.954;5.322;2023-08-17T02:39:34;5.97;;;3.60;;
21215;SDS011;10765;50.954;5.322;2023-08-17T02:42:01;5.03;;;3.03;;
21215;SDS011;10765;50.954;5.322;2023-08-17T02:44:27;3.33;;;3.03;;
21215;SDS011;10765;50.954;5.322;2023-08-17T02:46:56;4.53;;;3.53;;
21215;SDS011;10765;50.954;5.322;2023-08-17T02:49:23;3.63;;;3.20;;
21215;SDS011;10765;50.954;5.322;2023-08-17T02:51:49;6.13;;;3.40;;
21215;SDS011;10765;50.954;5.322;2023-08-17T02:54:16;5.13;;;3.30;;
21215;SDS011;10765;50.954;5.322;2023-08-17T02:56:46;3.90;;;3.30;;
21215;SDS011;10765;50.954;5.322;2023-08-17T02:59:13;6.97;;;3.17;;
21215;SDS011;10765;50.954;5.322;2023-08-17T03:01:40;4.47;;;3.13;;
21215;SDS011;10765;50.954;5.322;2023-08-17T03:04:08;3.83;;;3.33;;
21215;SDS011;10765;50.954;5.322;2023-08-17T03:06:35;4.63;;;3.43;;
21215;SDS011;10765;50.954;5.322;2023-08-17T03:09:02;3.40;;;3.10;;
21215;SDS011;10765;50.954;5.322;2023-08-17T03:11:29;5.10;;;3.50;;
21215;SDS011;10765;50.954;5.322;2023-08-17T03:13:56;5.77;;;3.50;;
21215;SDS011;10765;50.954;5.322;2023-08-17T03:16:25;4.10;;;3.50;;
21215;SDS011;10765;50.954;5.322;2023-08-17T03:18:52;3.80;;;3.20;;
21215;SDS011;10765;50.954;5.322;2023-08-17T03:21:20;5.87;;;3.80;;
21215;SDS011;10765;50.954;5.322;2023-08-17T03:23:47;4.17;;;3.60;;
21215;SDS011;10765;50.954;5.322;2023-08-17T03:26:14;4.23;;;3.70;;
21215;SDS011;10765;50.954;5.322;2023-08-17T03:28:41;5.80;;;3.80;;
21215;SDS011;10765;50.954;5.322;2023-08-17T03:31:08;5.13;;;3.70;;
21215;SDS011;10765;50.954;5.322;2023-08-17T03:33:35;3.67;;;3.30;;
21215;SDS011;10765;50.954;5.322;2023-08-17T03:36:02;5.17;;;3.67;;
21215;SDS011;10765;50.954;5.322;2023-08-17T03:38:31;4.47;;;3.40;;
21215;SDS011;10765;50.954;5.322;2023-08-17T03:40:58;5.50;;;3.60;;
21215;SDS011;10765;50.954;5.322;2023-08-17T03:43:25;4.67;;;3.40;;
21215;SDS011;10765;50.954;5.322;2023-08-17T03:45:52;4.63;;;3.43;;
21215;SDS011;10765;50.954;5.322;2023-08-17T03:48:19;6.53;;;3.50;;
21215;SDS011;10765;50.954;5.322;2023-08-17T03:50:47;4.30;;;3.60;;
21215;SDS011;10765;50.954;5.322;2023-08-17T03:53:17;5.37;;;4.17;;
21215;SDS011;10765;50.954;5.322;2023-08-17T03:55:46;4.67;;;3.83;;
21215;SDS011;10765;50.954;5.322;2023-08-17T03:58:13;8.33;;;4.63;;
21215;SDS011;10765;50.954;5.322;2023-08-17T04:00:40;7.53;;;4.70;;
21215;SDS011;10765;50.954;5.322;2023-08-17T04:03:08;5.53;;;4.83;;
21215;SDS011;10765;50.954;5.322;2023-08-17T04:05:35;6.03;;;4.80;;
21215;SDS011;10765;50.954;5.322;2023-08-17T04:08:02;5.10;;;4.60;;
21215;SDS011;10765;50.954;5.322;2023-08-17T04:10:29;4.67;;;4.10;;
21215;SDS011;10765;50.954;5.322;2023-08-17T04:12:57;7.93;;;4.63;;
21215;SDS011;10765;50.954;5.322;2023-08-17T04:15:24;7.10;;;4.37;;
21215;SDS011;10765;50.954;5.322;2023-08-17T04:17:51;5.67;;;4.20;;
21215;SDS011;10765;50.954;5.322;2023-08-17T04:20:18;5.77;;;3.90;;
21215;SDS011;10765;50.954;5.322;2023-08-17T04:22:46;5.00;;;4.50;;
21215;SDS011;10765;50.954;5.322;2023-08-17T04:25:13;5.77;;;4.10;;
21215;SDS011;10765;50.954;5.322;2023-08-17T04:27:42;6.47;;;4.07;;
21215;SDS011;10765;50.954;5.322;2023-08-17T04:30:11;7.93;;;4.07;;
21215;SDS011;10765;50.954;5.322;2023-08-17T04:32:38;6.60;;;4.63;;
21215;SDS011;10765;50.954;5.322;2023-08-17T04:35:05;5.50;;;4.30;;
21215;SDS011;10765;50.954;5.322;2023-08-17T04:37:33;5.33;;;4.43;;
21215;SDS011;10765;50.954;5.322;2023-08-17T04:39:59;5.57;;;4.60;;
21215;SDS011;10765;50.954;5.322;2023-08-17T04:42:26;5.93;;;5.33;;
21215;SDS011;10765;50.954;5.322;2023-08-17T04:44:53;6.20;;;5.17;;
21215;SDS011;10765;50.954;5.322;2023-08-17T04:47:22;6.63;;;4.73;;
21215;SDS011;10765;50.954;5.322;2023-08-17T04:49:48;6.80;;;5.07;;
21215;SDS011;10765;50.954;5.322;2023-08-17T04:52:15;6.80;;;5.10;;
21215;SDS011;10765;50.954;5.322;2023-08-17T04:54:42;6.70;;;5.63;;
21215;SDS011;10765;50.954;5.322;2023-08-17T04:57:09;7.03;;;4.90;;
21215;SDS011;10765;50.954;5.322;2023-08-17T04:59:36;5.73;;;4.57;;
21215;SDS011;10765;50.954;5.322;2023-08-17T05:02:03;5.07;;;4.57;;
21215;SDS011;10765;50.954;5.322;2023-08-17T05:04:31;5.67;;;4.80;;
21215;SDS011;10765;50.954;5.322;2023-08-17T05:06:58;5.77;;;4.33;;
21215;SDS011;10765;50.954;5.322;2023-08-17T05:09:26;5.40;;;4.80;;
21215;SDS011;10765;50.954;5.322;2023-08-17T05:11:53;7.63;;;4.10;;
21215;SDS011;10765;50.954;5.322;2023-08-17T05:14:20;5.77;;;3.63;;
21215;SDS011;10765;50.954;5.322;2023-08-17T05:16:47;6.07;;;4.70;;
21215;SDS011;10765;50.954;5.322;2023-08-17T05:19:14;5.37;;;4.23;;
21215;SDS011;10765;50.954;5.322;2023-08-17T05:21:42;6.73;;;3.80;;
21215;SDS011;10765;50.954;5.322;2023-08-17T05:24:09;5.93;;;4.10;;
21215;SDS011;10765;50.954;5.322;2023-08-17T05:26:36;6.10;;;4.23;;
21215;SDS011;10765;50.954;5.322;2023-08-17T05:29:03;5.63;;;4.67;;
21215;SDS011;10765;50.954;5.322;2023-08-17T05:31:30;6.03;;;4.50;;
21215;SDS011;10765;50.954;5.322;2023-08-17T05:33:57;5.50;;;3.73;;
21215;SDS011;10765;50.954;5.322;2023-08-17T05:36:24;6.57;;;4.13;;
21215;SDS011;10765;50.954;5.322;2023-08-17T05:38:52;7.20;;;4.63;;
21215;SDS011;10765;50.954;5.322;2023-08-17T05:41:19;5.03;;;4.40;;
21215;SDS011;10765;50.954;5.322;2023-08-17T05:43:47;6.37;;;4.80;;
21215;SDS011;10765;50.954;5.322;2023-08-17T05:46:14;5.93;;;4.53;;
21215;SDS011;10765;50.954;5.322;2023-08-17T05:48:41;8.20;;;5.27;;
21215;SDS011;10765;50.954;5.322;2023-08-17T05:51:08;4.83;;;4.37;;
21215;SDS011;10765;50.954;5.322;2023-08-17T05:53:38;5.40;;;4.77;;
21215;SDS011;10765;50.954;5.322;2023-08-17T05:56:07;5.57;;;4.60;;
21215;SDS011;10765;50.954;5.322;2023-08-17T05:58:34;5.20;;;4.70;;
21215;SDS011;10765;50.954;5.322;2023-08-17T06:01:05;6.10;;;4.73;;
21215;SDS011;10765;50.954;5.322;2023-08-17T06:03:32;4.73;;;4.13;;
21215;SDS011;10765;50.954;5.322;2023-08-17T06:05:59;7.17;;;4.43;;
21215;SDS011;10765;50.954;5.322;2023-08-17T06:08:26;6.17;;;4.40;;
21215;SDS011;10765;50.954;5.322;2023-08-17T06:10:53;6.33;;;4.60;;
21215;SDS011;10765;50.954;5.322;2023-08-17T06:13:22;7.00;;;5.17;;
21215;SDS011;10765;50.954;5.322;2023-08-17T06:15:49;7.83;;;5.03;;
21215;SDS011;10765;50.954;5.322;2023-08-17T06:18:15;5.57;;;4.73;;
21215;SDS011;10765;50.954;5.322;2023-08-17T06:20:42;6.67;;;4.63;;
21215;SDS011;10765;50.954;5.322;2023-08-17T06:23:11;5.13;;;4.67;;
21215;SDS011;10765;50.954;5.322;2023-08-17T06:25:38;6.50;;;4.40;;
21215;SDS011;10765;50.954;5.322;2023-08-17T06:28:05;7.33;;;5.00;;
21215;SDS011;10765;50.954;5.322;2023-08-17T06:30:34;6.40;;;4.70;;
21215;SDS011;10765;50.954;5.322;2023-08-17T06:33:00;8.67;;;5.43;;
21215;SDS011;10765;50.954;5.322;2023-08-17T06:35:27;11.63;;;6.93;;
21215;SDS011;10765;50.954;5.322;2023-08-17T06:37:54;10.23;;;6.93;;
21215;SDS011;10765;50.954;5.322;2023-08-17T06:40:23;9.33;;;6.47;;
21215;SDS011;10765;50.954;5.322;2023-08-17T06:42:50;8.33;;;7.37;;
21215;SDS011;10765;50.954;5.322;2023-08-17T06:45:17;9.63;;;7.17;;
21215;SDS011;10765;50.954;5.322;2023-08-17T06:47:45;10.17;;;7.73;;
21215;SDS011;10765;50.954;5.322;2023-08-17T06:50:13;10.13;;;7.43;;
21215;SDS011;10765;50.954;5.322;2023-08-17T06:52:40;10.83;;;7.33;;
21215;SDS011;10765;50.954;5.322;2023-08-17T06:55:08;10.00;;;7.23;;
21215;SDS011;10765;50.954;5.322;2023-08-17T06:57:35;9.83;;;8.17;;
21215;SDS011;10765;50.954;5.322;2023-08-17T07:00:03;11.83;;;8.80;;
21215;SDS011;10765;50.954;5.322;2023-08-17T07:02:31;15.13;;;10.90;;
21215;SDS011;10765;50.954;5.322;2023-08-17T07:05:00;12.10;;;9.87;;
21215;SDS011;10765;50.954;5.322;2023-08-17T07:07:28;11.73;;;9.80;;
21215;SDS011;10765;50.954;5.322;2023-08-17T07:09:56;14.20;;;10.37;;
21215;SDS011;10765;50.954;5.322;2023-08-17T07:12:23;16.63;;;12.03;;
21215;SDS011;10765;50.954;5.322;2023-08-17T07:14:50;17.00;;;12.23;;
21215;SDS011;10765;50.954;5.322;2023-08-17T07:17:17;16.03;;;11.33;;
21215;SDS011;10765;50.954;5.322;2023-08-17T07:19:44;15.90;;;11.40;;
21215;SDS011;10765;50.954;5.322;2023-08-17T07:22:12;13.40;;;11.33;;
21215;SDS011;10765;50.954;5.322;2023-08-17T07:24:41;16.27;;;11.43;;
21215;SDS011;10765;50.954;5.322;2023-08-17T07:27:08;13.47;;;11.73;;
21215;SDS011;10765;50.954;5.322;2023-08-17T07:29:35;15.77;;;11.47;;
21215;SDS011;10765;50.954;5.322;2023-08-17T07:32:02;16.17;;;11.73;;
21215;SDS011;10765;50.954;5.322;2023-08-17T07:34:29;12.23;;;10.50;;
21215;SDS011;10765;50.954;5.322;2023-08-17T07:36:56;15.63;;;11.00;;
21215;SDS011;10765;50.954;5.322;2023-08-17T07:39:24;11.20;;;10.00;;
21215;SDS011;10765;50.954;5.322;2023-08-17T07:41:51;12.27;;;10.50;;
21215;SDS011;10765;50.954;5.322;2023-08-17T07:44:18;12.23;;;10.73;;
21215;SDS011;10765;50.954;5.322;2023-08-17T07:46:45;13.87;;;10.97;;
21215;SDS011;10765;50.954;5.322;2023-08-17T07:49:12;15.97;;;10.43;;
21215;SDS011;10765;50.954;5.322;2023-08-17T07:51:39;13.47;;;11.17;;
21215;SDS011;10765;50.954;5.322;2023-08-17T07:54:06;16.23;;;10.60;;
21215;SDS011;10765;50.954;5.322;2023-08-17T07:56:35;15.00;;;11.63;;
21215;SDS011;10765;50.954;5.322;2023-08-17T07:59:02;16.57;;;10.80;;
21215;SDS011;10765;50.954;5.322;2023-08-17T08:01:29;17.03;;;11.13;;
21215;SDS011;10765;50.954;5.322;2023-08-17T08:03:55;15.00;;;11.30;;
21215;SDS011;10765;50.954;5.322;2023-08-17T08:06:23;13.30;;;10.37;;
21215;SDS011;10765;50.954;5.322;2023-08-17T08:08:51;11.77;;;9.50;;
21215;SDS011;10765;50.954;5.322;2023-08-17T08:11:18;12.90;;;10.43;;
21215;SDS011;10765;50.954;5.322;2023-08-17T08:13:49;13.03;;;10.17;;
21215;SDS011;10765;50.954;5.322;2023-08-17T08:16:16;13.00;;;10.47;;
21215;SDS011;10765;50.954;5.322;2023-08-17T08:18:43;12.50;;;10.73;;
21215;SDS011;10765;50.954;5.322;2023-08-17T08:21:10;13.63;;;12.07;;
21215;SDS011;10765;50.954;5.322;2023-08-17T08:23:36;13.73;;;11.10;;
21215;SDS011;10765;50.954;5.322;2023-08-17T08:26:03;15.70;;;12.27;;
21215;SDS011;10765;50.954;5.322;2023-08-17T08:28:31;15.17;;;12.17;;
21215;SDS011;10765;50.954;5.322;2023-08-17T08:31:02;15.10;;;11.67;;
21215;SDS011;10765;50.954;5.322;2023-08-17T08:33:29;16.90;;;13.03;;
21215;SDS011;10765;50.954;5.322;2023-08-17T08:35:56;14.33;;;12.37;;
21215;SDS011;10765;50.954;5.322;2023-08-17T08:38:23;15.30;;;11.97;;
21215;SDS011;10765;50.954;5.322;2023-08-17T08:40:50;16.80;;;13.47;;
21215;SDS011;10765;50.954;5.322;2023-08-17T08:43:18;18.07;;;13.47;;
21215;SDS011;10765;50.954;5.322;2023-08-17T08:45:45;17.57;;;14.83;;
21215;SDS011;10765;50.954;5.322;2023-08-17T08:48:15;16.87;;;14.20;;
21215;SDS011;10765;50.954;5.322;2023-08-17T08:50:44;19.57;;;15.70;;
21215;SDS011;10765;50.954;5.322;2023-08-17T08:53:13;17.03;;;15.27;;
21215;SDS011;10765;50.954;5.322;2023-08-17T08:55:42;18.00;;;16.00;;
21215;SDS011;10765;50.954;5.322;2023-08-17T08:58:13;17.43;;;15.63;;
21215;SDS011;10765;50.954;5.322;2023-08-17T09:00:42;18.13;;;16.33;;
21215;SDS011;10765;50.954;5.322;2023-08-17T09:03:12;17.27;;;15.43;;
21215;SDS011;10765;50.954;5.322;2023-08-17T09:05:41;18.30;;;16.30;;
21215;SDS011;10765;50.954;5.322;2023-08-17T09:08:10;16.97;;;15.27;;
21215;SDS011;10765;50.954;5.322;2023-08-17T09:10:39;16.23;;;14.53;;
21215;SDS011;10765;50.954;5.322;2023-08-17T09:13:07;16.93;;;15.33;;
21215;SDS011;10765;50.954;5.322;2023-08-17T09:15:34;18.07;;;16.47;;
21215;SDS011;10765;50.954;5.322;2023-08-17T09:18:01;16.87;;;15.43;;
21215;SDS011;10765;50.954;5.322;2023-08-17T09:20:35;16.93;;;15.47;;
21215;SDS011;10765;50.954;5.322;2023-08-17T09:23:05;18.03;;;16.43;;
21215;SDS011;10765;50.954;5.322;2023-08-17T09:25:38;17.23;;;15.60;;
21215;SDS011;10765;50.954;5.322;2023-08-17T09:28:09;17.77;;;16.00;;
21215;SDS011;10765;50.954;5.322;2023-08-17T09:30:51;19.53;;;17.63;;
21215;SDS011;10765;50.954;5.322;2023-08-17T09:33:19;18.23;;;16.53;;
21215;SDS011;10765;50.954;5.322;2023-08-17T09:35:47;18.50;;;17.00;;
21215;SDS011;10765;50.954;5.322;2023-08-17T09:38:15;19.53;;;17.73;;
21215;SDS011;10765;50.954;5.322;2023-08-17T09:40:42;19.40;;;17.60;;
21215;SDS011;10765;50.954;5.322;2023-08-17T09:43:10;18.23;;;16.63;;
21215;SDS011;10765;50.954;5.322;2023-08-17T09:45:38;18.83;;;17.10;;
21215;SDS011;10765;50.954;5.322;2023-08-17T09:48:05;21.00;;;19.00;;
21215;SDS011;10765;50.954;5.322;2023-08-17T09:50:33;19.43;;;17.60;;
21215;SDS011;10765;50.954;5.322;2023-08-17T09:53:00;20.93;;;19.00;;
21215;SDS011;10765;50.954;5.322;2023-08-17T09:55:30;21.37;;;19.37;;
21215;SDS011;10765;50.954;5.322;2023-08-17T09:57:59;20.80;;;18.70;;
21215;SDS011;10765;50.954;5.322;2023-08-17T10:00:26;21.90;;;19.80;;
21215;SDS011;10765;50.954;5.322;2023-08-17T10:02:54;22.17;;;19.87;;
21215;SDS011;10765;50.954;5.322;2023-08-17T10:05:24;22.20;;;20.00;;
21215;SDS011;10765;50.954;5.322;2023-08-17T10:07:56;23.40;;;21.13;;
21215;SDS011;10765;50.954;5.322;2023-08-17T10:10:25;21.40;;;19.20;;
21215;SDS011;10765;50.954;5.322;2023-08-17T10:12:56;22.47;;;20.27;;
21215;SDS011;10765;50.954;5.322;2023-08-17T10:15:31;22.27;;;20.07;;
21215;SDS011;10765;50.954;5.322;2023-08-17T10:18:11;20.83;;;18.83;;
21215;SDS011;10765;50.954;5.322;2023-08-17T10:20:42;20.80;;;17.83;;
21215;SDS011;10765;50.954;5.322;2023-08-17T10:23:17;20.40;;;18.30;;
21215;SDS011;10765;50.954;5.322;2023-08-17T10:25:48;20.27;;;18.30;;
21215;SDS011;10765;50.954;5.322;2023-08-17T10:28:18;19.20;;;17.30;;
21215;SDS011;10765;50.954;5.322;2023-08-17T10:30:46;17.47;;;15.60;;
21215;SDS011;10765;50.954;5.322;2023-08-17T10:33:14;18.20;;;15.73;;
21215;SDS011;10765;50.954;5.322;2023-08-17T10:35:41;15.57;;;13.97;;
21215;SDS011;10765;50.954;5.322;2023-08-17T10:38:09;17.87;;;14.50;;
21215;SDS011;10765;50.954;5.322;2023-08-17T10:40:37;16.00;;;14.50;;
21215;SDS011;10765;50.954;5.322;2023-08-17T10:43:05;15.80;;;14.30;;
21215;SDS011;10765;50.954;5.322;2023-08-17T10:45:34;16.53;;;14.73;;
21215;SDS011;10765;50.954;5.322;2023-08-17T10:51:03;17.63;;;16.03;;
21215;SDS011;10765;50.954;5.322;2023-08-17T10:53:34;17.53;;;15.83;;
21215;SDS011;10765;50.954;5.322;2023-08-17T10:56:06;19.07;;;17.27;;
21215;SDS011;10765;50.954;5.322;2023-08-17T10:58:35;18.80;;;16.80;;
21215;SDS011;10765;50.954;5.322;2023-08-17T11:01:03;18.00;;;16.20;;
21215;SDS011;10765;50.954;5.322;2023-08-17T11:03:30;19.60;;;17.70;;
21215;SDS011;10765;50.954;5.322;2023-08-17T11:05:58;19.67;;;17.70;;
21215;SDS011;10765;50.954;5.322;2023-08-17T11:08:50;20.07;;;18.13;;
21215;SDS011;10765;50.954;5.322;2023-08-17T11:11:19;20.23;;;18.37;;
21215;SDS011;10765;50.954;5.322;2023-08-17T11:13:47;18.47;;;16.63;;
21215;SDS011;10765;50.954;5.322;2023-08-17T11:16:16;19.77;;;17.73;;
21215;SDS011;10765;50.954;5.322;2023-08-17T11:18:45;20.30;;;18.07;;
21215;SDS011;10765;50.954;5.322;2023-08-17T11:21:14;18.27;;;16.47;;
21215;SDS011;10765;50.954;5.322;2023-08-17T11:23:41;20.30;;;18.30;;
21215;SDS011;10765;50.954;5.322;2023-08-17T11:26:09;19.20;;;17.33;;
21215;SDS011;10765;50.954;5.322;2023-08-17T11:28:35;20.27;;;17.93;;
21215;SDS011;10765;50.954;5.322;2023-08-17T11:31:04;19.33;;;17.40;;
21215;SDS011;10765;50.954;5.322;2023-08-17T11:33:35;19.43;;;17.43;;
21215;SDS011;10765;50.954;5.322;2023-08-17T11:36:03;19.00;;;16.83;;
21215;SDS011;10765;50.954;5.322;2023-08-17T11:38:32;18.63;;;16.23;;
21215;SDS011;10765;50.954;5.322;2023-08-17T11:41:00;17.57;;;15.80;;
21215;SDS011;10765;50.954;5.322;2023-08-17T11:43:28;19.93;;;17.83;;
21215;SDS011;10765;50.954;5.322;2023-08-17T11:45:55;21.30;;;19.10;;
21215;SDS011;10765;50.954;5.322;2023-08-17T11:48:23;18.87;;;16.27;;
21215;SDS011;10765;50.954;5.322;2023-08-17T11:50:52;18.53;;;16.27;;
21215;SDS011;10765;50.954;5.322;2023-08-17T11:53:20;19.70;;;17.60;;
21215;SDS011;10765;50.954;5.322;2023-08-17T11:55:49;19.60;;;17.60;;
21215;SDS011;10765;50.954;5.322;2023-08-17T11:58:17;18.20;;;16.40;;
21215;SDS011;10765;50.954;5.322;2023-08-17T12:00:44;21.90;;;19.83;;
21215;SDS011;10765;50.954;5.322;2023-08-17T12:03:14;20.33;;;18.47;;
21215;SDS011;10765;50.954;5.322;2023-08-17T12:05:42;20.20;;;18.30;;
21215;SDS011;10765;50.954;5.322;2023-08-17T12:08:12;21.87;;;19.67;;
21215;SDS011;10765;50.954;5.322;2023-08-17T12:10:40;21.53;;;19.50;;
21215;SDS011;10765;50.954;5.322;2023-08-17T12:13:10;19.50;;;17.70;;
21215;SDS011;10765;50.954;5.322;2023-08-17T12:15:39;19.87;;;18.10;;
21215;SDS011;10765;50.954;5.322;2023-08-17T12:18:06;19.73;;;17.83;;
21215;SDS011;10765;50.954;5.322;2023-08-17T12:20:33;19.93;;;18.13;;
21215;SDS011;10765;50.954;5.322;2023-08-17T12:23:01;21.80;;;19.70;;
21215;SDS011;10765;50.954;5.322;2023-08-17T12:25:32;20.90;;;18.77;;
21215;SDS011;10765;50.954;5.322;2023-08-17T12:27:59;18.40;;;16.53;;
21215;SDS011;10765;50.954;5.322;2023-08-17T12:30:27;20.20;;;18.10;;
21215;SDS011;10765;50.954;5.322;2023-08-17T12:32:56;19.87;;;17.77;;
21215;SDS011;10765;50.954;5.322;2023-08-17T12:35:23;20.60;;;16.67;;
21215;SDS011;10765;50.954;5.322;2023-08-17T12:37:50;19.73;;;17.73;;
21215;SDS011;10765;50.954;5.322;2023-08-17T12:40:17;19.47;;;17.50;;
21215;SDS011;10765;50.954;5.322;2023-08-17T12:42:46;18.57;;;16.97;;
21215;SDS011;10765;50.954;5.322;2023-08-17T12:45:14;18.70;;;16.47;;
21215;SDS011;10765;50.954;5.322;2023-08-17T12:47:41;17.47;;;15.73;;
21215;SDS011;10765;50.954;5.322;2023-08-17T12:50:09;18.13;;;16.10;;
21215;SDS011;10765;50.954;5.322;2023-08-17T12:52:36;16.37;;;14.67;;
21215;SDS011;10765;50.954;5.322;2023-08-17T12:55:03;16.10;;;14.50;;
21215;SDS011;10765;50.954;5.322;2023-08-17T12:57:30;16.23;;;14.03;;
21215;SDS011;10765;50.954;5.322;2023-08-17T12:59:58;16.10;;;14.43;;
21215;SDS011;10765;50.954;5.322;2023-08-17T13:02:25;16.00;;;14.20;;
21215;SDS011;10765;50.954;5.322;2023-08-17T13:04:52;14.57;;;13.00;;
21215;SDS011;10765;50.954;5.322;2023-08-17T13:07:19;14.97;;;13.37;;
21215;SDS011;10765;50.954;5.322;2023-08-17T13:09:46;15.00;;;13.40;;
21215;SDS011;10765;50.954;5.322;2023-08-17T13:12:13;15.50;;;13.93;;
21215;SDS011;10765;50.954;5.322;2023-08-17T13:14:40;15.03;;;12.93;;
21215;SDS011;10765;50.954;5.322;2023-08-17T13:17:08;14.13;;;12.13;;
21215;SDS011;10765;50.954;5.322;2023-08-17T13:19:35;13.73;;;12.43;;
21215;SDS011;10765;50.954;5.322;2023-08-17T13:22:02;13.40;;;12.20;;
21215;SDS011;10765;50.954;5.322;2023-08-17T13:24:29;15.93;;;13.30;;
21215;SDS011;10765;50.954;5.322;2023-08-17T13:26:56;14.43;;;12.90;;
21215;SDS011;10765;50.954;5.322;2023-08-17T13:29:23;14.60;;;13.03;;
21215;SDS011;10765;50.954;5.322;2023-08-17T13:31:50;14.17;;;12.47;;
21215;SDS011;10765;50.954;5.322;2023-08-17T13:34:18;15.23;;;13.60;;
21215;SDS011;10765;50.954;5.322;2023-08-17T13:36:45;15.07;;;13.13;;
21215;SDS011;10765;50.954;5.322;2023-08-17T13:39:12;14.93;;;13.20;;
21215;SDS011;10765;50.954;5.322;2023-08-17T13:41:39;16.17;;;14.40;;
21215;SDS011;10765;50.954;5.322;2023-08-17T13:44:07;16.83;;;15.20;;
21215;SDS011;10765;50.954;5.322;2023-08-17T13:46:34;15.23;;;13.63;;
21215;SDS011;10765;50.954;5.322;2023-08-17T13:49:01;16.53;;;14.30;;
21215;SDS011;10765;50.954;5.322;2023-08-17T13:51:31;17.17;;;15.43;;
21215;SDS011;10765;50.954;5.322;2023-08-17T13:53:58;15.87;;;14.27;;
21215;SDS011;10765;50.954;5.322;2023-08-17T13:56:25;17.03;;;15.33;;
21215;SDS011;10765;50.954;5.322;2023-08-17T13:58:52;16.57;;;14.83;;
21215;SDS011;10765;50.954;5.322;2023-08-17T14:01:19;17.20;;;15.40;;
21215;SDS011;10765;50.954;5.322;2023-08-17T14:03:45;16.40;;;14.80;;
21215;SDS011;10765;50.954;5.322;2023-08-17T14:06:12;16.13;;;14.57;;
21215;SDS011;10765;50.954;5.322;2023-08-17T14:08:42;16.37;;;14.77;;
21215;SDS011;10765;50.954;5.322;2023-08-17T14:11:09;17.43;;;15.40;;
21215;SDS011;10765;50.954;5.322;2023-08-17T14:13:36;17.47;;;15.67;;
21215;SDS011;10765;50.954;5.322;2023-08-17T14:16:04;16.63;;;15.03;;
21215;SDS011;10765;50.954;5.322;2023-08-17T14:18:31;17.77;;;15.90;;
21215;SDS011;10765;50.954;5.322;2023-08-17T14:20:58;18.03;;;16.20;;
21215;SDS011;10765;50.954;5.322;2023-08-17T14:23:25;19.70;;;15.47;;
21215;SDS011;10765;50.954;5.322;2023-08-17T14:25:53;18.63;;;16.93;;
21215;SDS011;10765;50.954;5.322;2023-08-17T14:28:20;19.43;;;17.63;;
21215;SDS011;10765;50.954;5.322;2023-08-17T14:30:47;19.13;;;17.03;;
21215;SDS011;10765;50.954;5.322;2023-08-17T14:33:14;19.07;;;17.10;;
21215;SDS011;10765;50.954;5.322;2023-08-17T14:35:40;18.73;;;16.93;;
21215;SDS011;10765;50.954;5.322;2023-08-17T14:38:07;18.00;;;16.30;;
21215;SDS011;10765;50.954;5.322;2023-08-17T14:40:38;17.77;;;15.87;;